WetterOnline ( https://www.wetteronline.de )

Wetter aktuell Großrückerswalde

Aktuelles Wetter: Chemnitz (420m)

6-stündlich | Neueste Meldungen
Ortszeit Temperatur Wetter
Fr, 21.06. 8:00 20.6° C wolkenlos
Fr, 21.06. 2:00 18.1° C leicht bewölkt
Do, 20.06. 20:00 19.9° C bedeckt
Do, 20.06. 14:00 20.7° C bedeckt
Do, 20.06. 8:00 12.4° C wolkig
Do, 20.06. 2:00 11.4° C Nebel
Mi, 19.06. 20:00 13.3° C Sprühregen
Mi, 19.06. 14:00 15.5° C bedeckt
Ortszeit Temperatur Wetter
Fr, 21.06. 10:00 24.0° C wolkig
Fr, 21.06. 9:40 23.9° C bedeckt
Fr, 21.06. 9:30 22.7° C bedeckt
Fr, 21.06. 9:20 22.7° C bedeckt
Fr, 21.06. 9:10 22.6° C bedeckt
Fr, 21.06. 9:00 22.3° C wolkig
Fr, 21.06. 8:50 22.3° C bedeckt
Fr, 21.06. 8:30 21.3° C leicht bewölkt
Fr, 21.06. 8:00 20.6° C wolkenlos
Fr, 21.06. 7:30 20.1° C fast wolkenlos
Fr, 21.06. 7:00 18.8° C leicht bewölkt
Ortszeit Relative Feuchte Sichtweite
Fr, 21.06. 8:00 73% 60 km
Fr, 21.06. 2:00 78% 50 km
Do, 20.06. 20:00 71% 50 km
Do, 20.06. 14:00 51% 50 km
Do, 20.06. 8:00 91% 29 km
Do, 20.06. 2:00 100% 100 m
Mi, 19.06. 20:00 99% 8 km
Mi, 19.06. 14:00 97% 5.0 km
Ortszeit Relative Feuchte Sichtweite
Fr, 21.06. 10:00 65% 25 km
Fr, 21.06. 9:40 64% -
Fr, 21.06. 9:30 66% 45 km
Fr, 21.06. 9:20 66% -
Fr, 21.06. 9:10 66% -
Fr, 21.06. 9:00 66% 55 km
Fr, 21.06. 8:50 66% -
Fr, 21.06. 8:30 70% 40 km
Fr, 21.06. 8:00 73% 60 km
Fr, 21.06. 7:30 74% 45 km
Fr, 21.06. 7:00 79% 50 km
Ortszeit Niederschlagsmenge Niederschlagsart
Fr, 21.06. 8:00 0.0 l/m2 in 12 Std. -
Fr, 21.06. 2:00 0.0 l/m2 in 6 Std. -
Do, 20.06. 20:00 0.0 l/m2 in 12 Std. -
Do, 20.06. 14:00 0.0 l/m2 in 6 Std. -
Do, 20.06. 8:00 0.3 l/m2 in 12 Std. -
Do, 20.06. 2:00 0.3 l/m2 in 6 Std. Regen
Mi, 19.06. 20:00 5 l/m2 in 12 Std. Regen
Mi, 19.06. 14:00 0.1 l/m2 in 6 Std. Regen
Ortszeit Niederschlagsmenge Niederschlagsart
Fr, 21.06. 10:00 0.0 l/m2 in 1 Std. -
Fr, 21.06. 9:40 keine Meldung -
Fr, 21.06. 9:30 0.0 l/m2 in 30 Min -
Fr, 21.06. 9:20 keine Meldung -
Fr, 21.06. 9:10 keine Meldung -
Fr, 21.06. 9:00 0.0 l/m2 in 1 Std. -
Fr, 21.06. 8:50 keine Meldung -
Fr, 21.06. 8:30 0.0 l/m2 in 30 Min -
Fr, 21.06. 8:00 0.0 l/m2 in 1 Std. -
Fr, 21.06. 7:30 0.0 l/m2 in 30 Min -
Fr, 21.06. 7:00 0.0 l/m2 in 1 Std. -
Ortszeit Stärke Spitze Richtung
km/h Bft. km/h Grad Sektor
Fr, 21.06. 8:00 7 2 18 110° O
Fr, 21.06. 2:00 6 1 22 140° SO
Do, 20.06. 20:00 7 2 22 140° SO
Do, 20.06. 14:00 13 3 28 130° SO
Do, 20.06. 8:00 4 1 11 50° NO
Do, 20.06. 2:00 2 1 17 160° S
Mi, 19.06. 20:00 13 3 28 360° N
Mi, 19.06. 14:00 11 2 22 340° N
Ortszeit Stärke Spitze Richtung
km/h Bft. km/h Grad Sektor
Fr, 21.06. 10:00 9 2 15 130° SO
Fr, 21.06. 9:40 7 2 - 130° SO
Fr, 21.06. 9:30 7 2 11 140° SO
Fr, 21.06. 9:20 7 2 - 140° SO
Fr, 21.06. 9:10 6 1 - 130° SO
Fr, 21.06. 9:00 7 2 18 120° SO
Fr, 21.06. 8:50 7 2 - 120° SO
Fr, 21.06. 8:30 9 2 19 100° O
Fr, 21.06. 8:00 7 2 18 110° O
Fr, 21.06. 7:30 7 2 18 130° SO
Fr, 21.06. 7:00 4 1 18 170° S
Ortszeit Untergrenze Bedeckung Gattung
total tief tief mittel hoch
Fr, 21.06. 8:00 - 0/8 0/8 - - -
Fr, 21.06. 2:00 8700 m 5/8 0/8 - - -
Do, 20.06. 20:00 3300 m 8/8 8/8 - - -
Do, 20.06. 14:00 3300 m 8/8 8/8 - - -
Do, 20.06. 8:00 7800 m 8/8 0/8 - - -
Do, 20.06. 2:00 <30 m 7/8 0/8 - - -
Mi, 19.06. 20:00 60 m 7/8 7/8 - - -
Mi, 19.06. 14:00 90 m 8/8 8/8 - - -
Ortszeit Bedeckungsgrad in Achtel und Wolkenuntergrenze
Fr, 21.06. 10:00 4(3600m) 8(5700m) 8(7200m)
Fr, 21.06. 9:40 8
Fr, 21.06. 9:30 7(5700m) 8(6600m) 8(7200m)
Fr, 21.06. 9:20 7(5700m) 8(6600m) 8(7200m)
Fr, 21.06. 9:10 8
Fr, 21.06. 9:00 7(5700m) 8(6900m)
Fr, 21.06. 8:50 7(5700m) 8(6900m)
Fr, 21.06. 8:30 4(6300m) 4(7200m)
Fr, 21.06. 8:00 keine Wolken
Fr, 21.06. 7:30 1(8400m)
Fr, 21.06. 7:00 2(7200m) 5(8700m)
Ortszeit Luftdruck NN (hPa) Tendenz (hPa in 3 Std.)
Fr, 21.06. 8:00 1015 - 0,8
Fr, 21.06. 2:00 1017 - 1,1
Do, 20.06. 20:00 1018 - 0,9
Do, 20.06. 14:00 1021 - 0,8
Do, 20.06. 8:00 1024 + 0,5
Do, 20.06. 2:00 1023 + 0,4
Mi, 19.06. 20:00 1020 + 1,7
Mi, 19.06. 14:00 1016 + 1,6
Ortszeit Luftdruck NN (hPa) Tendenz (hPa in 3 Std.)
Fr, 21.06. 10:00 1013 - 0,6
Fr, 21.06. 9:40 1014 keine Meldung
Fr, 21.06. 9:30 1014 - 0,3
Fr, 21.06. 9:20 1014 keine Meldung
Fr, 21.06. 9:10 1014 keine Meldung
Fr, 21.06. 9:00 1014 - 0,3
Fr, 21.06. 8:50 1014 keine Meldung
Fr, 21.06. 8:30 1014 - 0,5
Fr, 21.06. 8:00 1015 - 0,8
Fr, 21.06. 7:30 1015 - 1,2
Fr, 21.06. 7:00 1015 - 1,2
Ortszeit Schneehöhe (cm)
Fr, 21.06. 8:00 0
Fr, 21.06. 2:00 0
Do, 20.06. 20:00 0
Do, 20.06. 14:00 0
Do, 20.06. 8:00 0
Do, 20.06. 2:00 0
Mi, 19.06. 20:00 0
Mi, 19.06. 14:00 0
Ortszeit Schneehöhe (cm)
Fr, 21.06. 10:00 0
Fr, 21.06. 9:40 -
Fr, 21.06. 9:30 0
Fr, 21.06. 9:20 0
Fr, 21.06. 9:10 -
Fr, 21.06. 9:00 0
Fr, 21.06. 8:50 0
Fr, 21.06. 8:30 0
Fr, 21.06. 8:00 0
Fr, 21.06. 7:30 0
Fr, 21.06. 7:00 0
Link zu dieser Seite / Seite empfehlen

Das Wetter in ...